Atlanta, Georgia
Traffic Map
Current Weather Conditions
Atlanta, Georgia
Clear
Clear
20°
Feels Like: 20°
Wind Chill: 20° Ceiling: Unl
Heat Index: 20° Visibility: 10mi
Dew Point: 16° Wind: 8mph
Humidity: 76% Direction: 90° (E)
Pressure: 30.08in Gusts: 0mph
Raw Report DataKATL 270952Z 09007KT 10SM CLR 20/16 A3008 RMK AO2 SLP177 T02000156
Traffic Incident Summary
Active as of:
Severity:
Category:
InformationThere was an issue retrieving the traffic information for this location. Please try a different location or try again shortly.
Advertisements
Track Severe Weather on mobile